RZO217 GVNP-LPPD
Flight info
| Callsign | RZO217 |
|---|---|
| Flight time | 3h 33m |
| Altitude | 34000 |
| Route | NCL2E NCL DCT KEGIL/N0472F330 DCT PIXED/M080F340 DCT 29N026W/M080F350 33N025W DCT VSM |
| Aircraft | A21N/M-SDE2E3FGHIRWXY/LB1 |
Departure
| Time | 2026-04-26 14:15 |
|---|---|
| Airport | Nelson Mandela International Airport (GVNP) |
Arrival
| Time | 2026-04-26 17:48 |
|---|---|
| Airport | João Paulo II Airport (LPPD) |
| Time | Latitude | Longitude | Altitude | Speed | Heading |
|---|---|---|---|---|---|
| 2026-04-26 13:53 | 14.94482 | -23.48559 | 344 ft | 0 kts | 292° |
| 2026-04-26 13:57 | 14.94481 | -23.48559 | 352 ft | 0 kts | 292° |
| 2026-04-26 13:57 | 14.94482 | -23.48559 | 344 ft | 0 kts | 292° |
| 2026-04-26 14:08 | 14.94478 | -23.48550 | 350 ft | 4 kts | 301° |
| 2026-04-26 14:08 | 14.94473 | -23.48538 | 345 ft | 4 kts | 275° |
| 2026-04-26 14:08 | 14.94477 | -23.48511 | 347 ft | 4 kts | 252° |
| 2026-04-26 14:08 | 14.94480 | -23.48502 | 348 ft | 1 kts | 252° |
| 2026-04-26 14:10 | 14.94475 | -23.48506 | 352 ft | 2 kts | 209° |
| 2026-04-26 14:10 | 14.94432 | -23.48519 | 349 ft | 12 kts | 197° |
| 2026-04-26 14:11 | 14.94325 | -23.48426 | 354 ft | 12 kts | 120° |
| 2026-04-26 14:11 | 14.94247 | -23.48414 | 346 ft | 13 kts | 200° |
| 2026-04-26 14:11 | 14.94156 | -23.48453 | 350 ft | 18 kts | 202° |
| 2026-04-26 14:12 | 14.93993 | -23.48520 | 353 ft | 31 kts | 201° |
| 2026-04-26 14:12 | 14.93751 | -23.48618 | 345 ft | 42 kts | 200° |
| 2026-04-26 14:12 | 14.93513 | -23.48716 | 336 ft | 33 kts | 200° |
| 2026-04-26 14:12 | 14.93364 | -23.48780 | 338 ft | 21 kts | 205° |
| 2026-04-26 14:13 | 14.93261 | -23.48825 | 335 ft | 4 kts | 47° |
| 2026-04-26 14:13 | 14.93291 | -23.48810 | 331 ft | 6 kts | 20° |
| 2026-04-26 14:13 | 14.93332 | -23.48794 | 336 ft | 7 kts | 20° |
| 2026-04-26 14:14 | 14.93381 | -23.48774 | 334 ft | 8 kts | 25° |
| 2026-04-26 14:14 | 14.93436 | -23.48749 | 336 ft | 9 kts | 21° |
| 2026-04-26 14:14 | 14.93575 | -23.48692 | 340 ft | 54 kts | 21° |
| 2026-04-26 14:14 | 14.94152 | -23.48454 | 349 ft | 122 kts | 22° |
| 2026-04-26 14:15 | 14.95080 | -23.48068 | 509 ft | 154 kts | 22° |
| 2026-04-26 14:15 | 14.96057 | -23.47654 | 1213 ft | 151 kts | 22° |
| 2026-04-26 14:15 | 14.97021 | -23.47246 | 1979 ft | 148 kts | 22° |
| 2026-04-26 14:15 | 14.98009 | -23.46880 | 2517 ft | 159 kts | 21° |
| 2026-04-26 14:16 | 14.99087 | -23.46398 | 2789 ft | 183 kts | 22° |
| 2026-04-26 14:16 | 15.00309 | -23.45879 | 3266 ft | 198 kts | 21° |
| 2026-04-26 14:16 | 15.01645 | -23.45319 | 3719 ft | 218 kts | 21° |
| 2026-04-26 14:16 | 15.03136 | -23.44693 | 4034 ft | 244 kts | 21° |
| 2026-04-26 14:17 | 15.04759 | -23.44008 | 4553 ft | 258 kts | 21° |
| 2026-04-26 14:17 | 15.06446 | -23.43298 | 5207 ft | 265 kts | 21° |
| 2026-04-26 14:17 | 15.08174 | -23.42570 | 5845 ft | 271 kts | 21° |
| 2026-04-26 14:17 | 15.09944 | -23.41826 | 6447 ft | 277 kts | 20° |
| 2026-04-26 14:18 | 15.11827 | -23.41397 | 6992 ft | 281 kts | 358° |
| 2026-04-26 14:18 | 15.13735 | -23.41792 | 7570 ft | 282 kts | 334° |
| 2026-04-26 14:18 | 15.15346 | -23.42938 | 8164 ft | 283 kts | 315° |
| 2026-04-26 14:18 | 15.16723 | -23.44401 | 8775 ft | 286 kts | 311° |
| 2026-04-26 14:19 | 15.18096 | -23.45905 | 9390 ft | 289 kts | 312° |
| 2026-04-26 14:19 | 15.19498 | -23.47412 | 10012 ft | 291 kts | 312° |
| 2026-04-26 14:19 | 15.20942 | -23.48939 | 10382 ft | 305 kts | 312° |
| 2026-04-26 14:19 | 15.22457 | -23.50526 | 10635 ft | 322 kts | 312° |
| 2026-04-26 14:20 | 15.24077 | -23.52211 | 10872 ft | 339 kts | 312° |
| 2026-04-26 14:20 | 15.25785 | -23.53983 | 11102 ft | 356 kts | 312° |
| 2026-04-26 14:20 | 15.27577 | -23.55838 | 11321 ft | 372 kts | 312° |
| 2026-04-26 14:20 | 15.29443 | -23.57770 | 11528 ft | 387 kts | 312° |
| 2026-04-26 14:21 | 15.31382 | -23.59776 | 11738 ft | 399 kts | 312° |
| 2026-04-26 14:21 | 15.33365 | -23.61826 | 12130 ft | 405 kts | 312° |
| 2026-04-26 14:21 | 15.35364 | -23.63898 | 12616 ft | 407 kts | 312° |
| 2026-04-26 14:21 | 15.37375 | -23.65979 | 13129 ft | 409 kts | 312° |
| 2026-04-26 14:22 | 15.39391 | -23.68068 | 13635 ft | 411 kts | 312° |
| 2026-04-26 14:22 | 15.41427 | -23.70175 | 14099 ft | 413 kts | 312° |
| 2026-04-26 14:22 | 15.43548 | -23.72202 | 14507 ft | 418 kts | 319° |
| 2026-04-26 14:22 | 15.46022 | -23.73814 | 14967 ft | 423 kts | 330° |
| 2026-04-26 14:23 | 15.48646 | -23.75125 | 15448 ft | 425 kts | 332° |
| 2026-04-26 14:23 | 15.51336 | -23.76425 | 15877 ft | 428 kts | 332° |
| 2026-04-26 14:23 | 15.54040 | -23.77736 | 16237 ft | 428 kts | 332° |
| 2026-04-26 14:23 | 15.56742 | -23.79055 | 16569 ft | 430 kts | 332° |
| 2026-04-26 14:24 | 15.59450 | -23.80387 | 16919 ft | 432 kts | 332° |
| 2026-04-26 14:24 | 15.62167 | -23.81728 | 17269 ft | 435 kts | 332° |
| 2026-04-26 14:24 | 15.63450 | -23.82360 | 17456 ft | 436 kts | 332° |
| 2026-04-26 14:24 | 15.66186 | -23.83726 | 17850 ft | 436 kts | 332° |
| 2026-04-26 14:25 | 15.68931 | -23.85074 | 18182 ft | 437 kts | 332° |
| 2026-04-26 14:25 | 15.71693 | -23.86427 | 18497 ft | 439 kts | 332° |
| 2026-04-26 14:25 | 15.74460 | -23.87786 | 18816 ft | 441 kts | 332° |
| 2026-04-26 14:25 | 15.77240 | -23.89150 | 19125 ft | 442 kts | 332° |
| 2026-04-26 14:26 | 15.80028 | -23.90524 | 19445 ft | 444 kts | 332° |
| 2026-04-26 14:26 | 15.82789 | -23.91886 | 19776 ft | 446 kts | 332° |
| 2026-04-26 14:26 | 15.85595 | -23.93278 | 20099 ft | 447 kts | 332° |
| 2026-04-26 14:26 | 15.88411 | -23.94670 | 20415 ft | 449 kts | 332° |
| 2026-04-26 14:27 | 15.90317 | -23.95611 | 20625 ft | 451 kts | 332° |
| 2026-04-26 14:27 | 15.93161 | -23.97017 | 20971 ft | 453 kts | 332° |
| 2026-04-26 14:27 | 15.96017 | -23.98430 | 21380 ft | 455 kts | 332° |
| 2026-04-26 14:27 | 15.98843 | -23.99826 | 21783 ft | 457 kts | 332° |
| 2026-04-26 14:28 | 16.01726 | -24.01253 | 22142 ft | 459 kts | 332° |
| 2026-04-26 14:28 | 16.04613 | -24.02686 | 22481 ft | 461 kts | 332° |
| 2026-04-26 14:28 | 16.07511 | -24.04130 | 22800 ft | 462 kts | 332° |
| 2026-04-26 14:28 | 16.10425 | -24.05577 | 23083 ft | 464 kts | 332° |
| 2026-04-26 14:29 | 16.13351 | -24.07030 | 23356 ft | 466 kts | 332° |
| 2026-04-26 14:29 | 16.16282 | -24.08484 | 23639 ft | 466 kts | 332° |
| 2026-04-26 14:29 | 16.19204 | -24.09940 | 23986 ft | 465 kts | 332° |
| 2026-04-26 14:29 | 16.22120 | -24.11412 | 24320 ft | 464 kts | 332° |
| 2026-04-26 14:30 | 16.25020 | -24.12872 | 24654 ft | 462 kts | 332° |
| 2026-04-26 14:30 | 16.27927 | -24.14311 | 24965 ft | 461 kts | 332° |
| 2026-04-26 14:30 | 16.30818 | -24.15742 | 25302 ft | 460 kts | 332° |
| 2026-04-26 14:30 | 16.33702 | -24.17178 | 25649 ft | 458 kts | 332° |
| 2026-04-26 14:31 | 16.36531 | -24.18588 | 25997 ft | 456 kts | 332° |
| 2026-04-26 14:31 | 16.39393 | -24.19991 | 26341 ft | 454 kts | 332° |
| 2026-04-26 14:31 | 16.42253 | -24.21384 | 26663 ft | 452 kts | 332° |
| 2026-04-26 14:31 | 16.45095 | -24.22781 | 26976 ft | 451 kts | 332° |
| 2026-04-26 14:32 | 16.47923 | -24.24179 | 27293 ft | 449 kts | 332° |
| 2026-04-26 14:32 | 16.50740 | -24.25574 | 27612 ft | 447 kts | 332° |
| 2026-04-26 14:32 | 16.53541 | -24.26970 | 27916 ft | 446 kts | 331° |
| 2026-04-26 14:32 | 16.56351 | -24.28331 | 28217 ft | 446 kts | 334° |
| 2026-04-26 14:33 | 16.59236 | -24.29512 | 28498 ft | 445 kts | 335° |
| 2026-04-26 14:33 | 16.62134 | -24.30658 | 28807 ft | 444 kts | 335° |
| 2026-04-26 14:33 | 16.65015 | -24.31795 | 29122 ft | 442 kts | 335° |
| 2026-04-26 14:33 | 16.67875 | -24.32929 | 29409 ft | 440 kts | 335° |
| 2026-04-26 14:34 | 16.70727 | -24.34073 | 29700 ft | 438 kts | 335° |
| 2026-04-26 14:34 | 16.73576 | -24.35214 | 29966 ft | 437 kts | 335° |
| 2026-04-26 14:34 | 16.76419 | -24.36344 | 30243 ft | 436 kts | 335° |
| 2026-04-26 14:34 | 16.79251 | -24.37465 | 30534 ft | 435 kts | 335° |
| 2026-04-26 14:35 | 16.82073 | -24.38584 | 30815 ft | 434 kts | 335° |
| 2026-04-26 14:35 | 16.84862 | -24.39678 | 31089 ft | 433 kts | 335° |
| 2026-04-26 14:35 | 16.87711 | -24.40799 | 31345 ft | 432 kts | 335° |
| 2026-04-26 14:35 | 16.90482 | -24.41895 | 31591 ft | 431 kts | 334° |
| 2026-04-26 14:36 | 16.93314 | -24.43025 | 31851 ft | 430 kts | 334° |
| 2026-04-26 14:36 | 16.96071 | -24.44129 | 32090 ft | 429 kts | 334° |
| 2026-04-26 14:36 | 16.98850 | -24.45240 | 32337 ft | 428 kts | 334° |
| 2026-04-26 14:36 | 17.01636 | -24.46346 | 32560 ft | 428 kts | 334° |
| 2026-04-26 14:37 | 17.04416 | -24.47447 | 32783 ft | 427 kts | 334° |
| 2026-04-26 14:37 | 17.07192 | -24.48551 | 33012 ft | 426 kts | 334° |
| 2026-04-26 14:37 | 17.09956 | -24.49658 | 33238 ft | 425 kts | 334° |
| 2026-04-26 14:37 | 17.12714 | -24.50758 | 33439 ft | 424 kts | 334° |
| 2026-04-26 14:38 | 17.15470 | -24.51862 | 33645 ft | 423 kts | 334° |
| 2026-04-26 14:38 | 17.18221 | -24.52956 | 33862 ft | 422 kts | 334° |
| 2026-04-26 14:38 | 17.20970 | -24.54040 | 34018 ft | 422 kts | 334° |
| 2026-04-26 14:39 | 17.26455 | -24.56216 | 34040 ft | 420 kts | 334° |
| 2026-04-26 14:39 | 17.31919 | -24.58395 | 34026 ft | 420 kts | 334° |
| 2026-04-26 14:40 | 17.37378 | -24.60579 | 34022 ft | 420 kts | 334° |
| 2026-04-26 14:40 | 17.42797 | -24.62743 | 34016 ft | 419 kts | 334° |
| 2026-04-26 14:41 | 17.48246 | -24.64919 | 34025 ft | 419 kts | 334° |
| 2026-04-26 14:41 | 17.53699 | -24.67099 | 34020 ft | 419 kts | 334° |
| 2026-04-26 14:42 | 17.59136 | -24.69279 | 34023 ft | 419 kts | 334° |
| 2026-04-26 14:42 | 17.64587 | -24.71463 | 34021 ft | 419 kts | 334° |
| 2026-04-26 14:43 | 17.70024 | -24.73643 | 34018 ft | 418 kts | 334° |
| 2026-04-26 14:43 | 17.75434 | -24.75812 | 34020 ft | 418 kts | 334° |
| 2026-04-26 14:44 | 17.80878 | -24.78000 | 34016 ft | 418 kts | 334° |
| 2026-04-26 14:44 | 17.86324 | -24.80188 | 34023 ft | 419 kts | 333° |
| 2026-04-26 14:45 | 17.91765 | -24.82382 | 34024 ft | 419 kts | 333° |
| 2026-04-26 14:45 | 17.97210 | -24.84577 | 34026 ft | 419 kts | 333° |
| 2026-04-26 14:46 | 18.02663 | -24.86764 | 34026 ft | 418 kts | 333° |
| 2026-04-26 14:46 | 18.08024 | -24.88936 | 34017 ft | 414 kts | 333° |
| 2026-04-26 14:47 | 18.13404 | -24.91094 | 34014 ft | 415 kts | 334° |
| 2026-04-26 14:47 | 18.19185 | -24.92159 | 34019 ft | 432 kts | 351° |
| 2026-04-26 14:48 | 18.25233 | -24.92181 | 34022 ft | 434 kts | 352° |
| 2026-04-26 14:48 | 18.31265 | -24.92238 | 34022 ft | 433 kts | 352° |
| 2026-04-26 14:49 | 18.37297 | -24.92312 | 34021 ft | 433 kts | 351° |
| 2026-04-26 14:49 | 18.43325 | -24.92398 | 34022 ft | 433 kts | 351° |
| 2026-04-26 14:50 | 18.49304 | -24.92477 | 34023 ft | 432 kts | 351° |
| 2026-04-26 14:50 | 18.55319 | -24.92557 | 34020 ft | 432 kts | 351° |
| 2026-04-26 14:51 | 18.61339 | -24.92639 | 34016 ft | 432 kts | 351° |
| 2026-04-26 14:51 | 18.67352 | -24.92719 | 34020 ft | 431 kts | 351° |
| 2026-04-26 14:52 | 18.73361 | -24.92799 | 34020 ft | 431 kts | 351° |
| 2026-04-26 14:52 | 18.79315 | -24.92879 | 34023 ft | 431 kts | 351° |
| 2026-04-26 14:53 | 18.85313 | -24.92960 | 34021 ft | 430 kts | 351° |
| 2026-04-26 14:53 | 18.91312 | -24.93037 | 34021 ft | 430 kts | 351° |
| 2026-04-26 14:54 | 18.97301 | -24.93116 | 34022 ft | 430 kts | 351° |
| 2026-04-26 14:54 | 19.03274 | -24.93196 | 34018 ft | 429 kts | 351° |
| 2026-04-26 14:55 | 19.09251 | -24.93277 | 34022 ft | 429 kts | 351° |
| 2026-04-26 14:55 | 19.15217 | -24.93355 | 34020 ft | 428 kts | 351° |
| 2026-04-26 14:56 | 19.21178 | -24.93432 | 34013 ft | 428 kts | 351° |
| 2026-04-26 14:56 | 19.27094 | -24.93512 | 34022 ft | 428 kts | 351° |
| 2026-04-26 14:57 | 19.33048 | -24.93589 | 34026 ft | 427 kts | 350° |
| 2026-04-26 14:57 | 19.38994 | -24.93672 | 34023 ft | 427 kts | 350° |
| 2026-04-26 14:58 | 19.44944 | -24.93754 | 34019 ft | 428 kts | 350° |
| 2026-04-26 14:58 | 19.50905 | -24.93833 | 34012 ft | 428 kts | 350° |
| 2026-04-26 14:59 | 19.56855 | -24.93912 | 34021 ft | 428 kts | 350° |
| 2026-04-26 14:59 | 19.62802 | -24.93992 | 34020 ft | 427 kts | 350° |
| 2026-04-26 15:00 | 19.68742 | -24.94069 | 34022 ft | 427 kts | 350° |
| 2026-04-26 15:00 | 19.74688 | -24.94148 | 34023 ft | 427 kts | 350° |
| 2026-04-26 15:01 | 19.80628 | -24.94228 | 34013 ft | 426 kts | 350° |
| 2026-04-26 15:01 | 19.86528 | -24.94305 | 34021 ft | 426 kts | 350° |
| 2026-04-26 15:02 | 19.92468 | -24.94384 | 34020 ft | 426 kts | 350° |
| 2026-04-26 15:02 | 19.98402 | -24.94463 | 34014 ft | 426 kts | 350° |
| 2026-04-26 15:03 | 20.04326 | -24.94542 | 34028 ft | 423 kts | 349° |
| 2026-04-26 15:03 | 20.10218 | -24.94623 | 34018 ft | 423 kts | 349° |
| 2026-04-26 15:04 | 20.16113 | -24.94703 | 34023 ft | 423 kts | 349° |
| 2026-04-26 15:04 | 20.22012 | -24.94786 | 34023 ft | 423 kts | 349° |
| 2026-04-26 15:05 | 20.27902 | -24.94865 | 34019 ft | 423 kts | 349° |
| 2026-04-26 15:05 | 20.33754 | -24.94944 | 34022 ft | 423 kts | 349° |
| 2026-04-26 15:06 | 20.39649 | -24.95021 | 34025 ft | 423 kts | 349° |
| 2026-04-26 15:06 | 20.45540 | -24.95100 | 34026 ft | 423 kts | 349° |
| 2026-04-26 15:07 | 20.54377 | -24.95221 | 34028 ft | 423 kts | 349° |
| 2026-04-26 15:07 | 20.60271 | -24.95300 | 34025 ft | 423 kts | 349° |
| 2026-04-26 15:08 | 20.66125 | -24.95379 | 34024 ft | 423 kts | 349° |
| 2026-04-26 15:08 | 20.72021 | -24.95460 | 34021 ft | 423 kts | 349° |
| 2026-04-26 15:09 | 20.77914 | -24.95542 | 34022 ft | 424 kts | 349° |
| 2026-04-26 15:09 | 20.83815 | -24.95620 | 34016 ft | 424 kts | 349° |
| 2026-04-26 15:10 | 20.88714 | -24.95686 | 34022 ft | 424 kts | 349° |
| 2026-04-26 15:10 | 20.95602 | -24.95778 | 34015 ft | 423 kts | 349° |
| 2026-04-26 15:11 | 21.01468 | -24.95859 | 34014 ft | 424 kts | 350° |
| 2026-04-26 15:11 | 21.07377 | -24.95940 | 34003 ft | 425 kts | 350° |
| 2026-04-26 15:12 | 21.13300 | -24.96019 | 34002 ft | 425 kts | 350° |
| 2026-04-26 15:12 | 21.19197 | -24.96099 | 34001 ft | 424 kts | 350° |
| 2026-04-26 15:13 | 21.25089 | -24.96182 | 34001 ft | 423 kts | 350° |
| 2026-04-26 15:13 | 21.30974 | -24.96265 | 34000 ft | 423 kts | 350° |
| 2026-04-26 15:14 | 21.36868 | -24.96344 | 34000 ft | 423 kts | 350° |
| 2026-04-26 15:14 | 21.42719 | -24.96423 | 34002 ft | 423 kts | 350° |
| 2026-04-26 15:15 | 21.48609 | -24.96505 | 34001 ft | 423 kts | 350° |
| 2026-04-26 15:15 | 21.54502 | -24.96586 | 34001 ft | 423 kts | 350° |
| 2026-04-26 15:16 | 21.59397 | -24.96653 | 34001 ft | 423 kts | 350° |
| 2026-04-26 15:16 | 21.65284 | -24.96735 | 34001 ft | 423 kts | 350° |
| 2026-04-26 15:17 | 21.70183 | -24.96800 | 33998 ft | 423 kts | 350° |
| 2026-04-26 15:17 | 21.77077 | -24.96893 | 34000 ft | 423 kts | 350° |
| 2026-04-26 15:18 | 21.82964 | -24.96977 | 34006 ft | 423 kts | 350° |
| 2026-04-26 15:18 | 21.88858 | -24.97057 | 34011 ft | 423 kts | 350° |
| 2026-04-26 15:19 | 21.94710 | -24.97138 | 34011 ft | 423 kts | 350° |
| 2026-04-26 15:19 | 22.00604 | -24.97223 | 34015 ft | 423 kts | 350° |
| 2026-04-26 15:20 | 22.06477 | -24.97302 | 34018 ft | 422 kts | 351° |
| 2026-04-26 15:20 | 22.12352 | -24.97382 | 34024 ft | 422 kts | 351° |
| 2026-04-26 15:21 | 22.18220 | -24.97462 | 34021 ft | 421 kts | 351° |
| 2026-04-26 15:21 | 22.24078 | -24.97545 | 34019 ft | 421 kts | 351° |
| 2026-04-26 15:22 | 22.29939 | -24.97623 | 34018 ft | 421 kts | 351° |
| 2026-04-26 15:22 | 22.35799 | -24.97706 | 34014 ft | 421 kts | 351° |
| 2026-04-26 15:23 | 22.41624 | -24.97790 | 34019 ft | 421 kts | 351° |
| 2026-04-26 15:23 | 22.47480 | -24.97871 | 34022 ft | 421 kts | 351° |
| 2026-04-26 15:24 | 22.53342 | -24.97957 | 34021 ft | 421 kts | 351° |
| 2026-04-26 15:24 | 22.59186 | -24.98040 | 34035 ft | 420 kts | 351° |
| 2026-04-26 15:25 | 22.64047 | -24.98111 | 34024 ft | 420 kts | 351° |
| 2026-04-26 15:25 | 22.70895 | -24.98201 | 34024 ft | 421 kts | 351° |
| 2026-04-26 15:26 | 22.76714 | -24.98266 | 34029 ft | 421 kts | 351° |
| 2026-04-26 15:26 | 22.82562 | -24.98351 | 34034 ft | 419 kts | 351° |
| 2026-04-26 15:27 | 22.88404 | -24.98437 | 34037 ft | 419 kts | 351° |
| 2026-04-26 15:27 | 22.94236 | -24.98520 | 34029 ft | 419 kts | 351° |
| 2026-04-26 15:28 | 23.00074 | -24.98599 | 34034 ft | 420 kts | 351° |
| 2026-04-26 15:28 | 23.05923 | -24.98681 | 34037 ft | 419 kts | 351° |
| 2026-04-26 15:29 | 23.11721 | -24.98767 | 34028 ft | 419 kts | 351° |
| 2026-04-26 15:30 | 23.23375 | -24.98924 | 34034 ft | 419 kts | 351° |
| 2026-04-26 15:30 | 23.29191 | -24.99008 | 34030 ft | 418 kts | 351° |
| 2026-04-26 15:31 | 23.37926 | -24.99129 | 34042 ft | 418 kts | 351° |
| 2026-04-26 15:32 | 23.45675 | -24.99241 | 34045 ft | 418 kts | 351° |
| 2026-04-26 15:32 | 23.52478 | -24.99339 | 34044 ft | 417 kts | 351° |
| 2026-04-26 15:33 | 23.58282 | -24.99419 | 34044 ft | 418 kts | 351° |
| 2026-04-26 15:33 | 23.64016 | -24.99500 | 34046 ft | 417 kts | 351° |
| 2026-04-26 15:34 | 23.69896 | -24.99585 | 34041 ft | 417 kts | 351° |
| 2026-04-26 15:34 | 23.75703 | -24.99667 | 34031 ft | 417 kts | 351° |
| 2026-04-26 15:35 | 23.81475 | -24.99748 | 34044 ft | 417 kts | 351° |
| 2026-04-26 15:35 | 23.87282 | -24.99828 | 34045 ft | 417 kts | 352° |
| 2026-04-26 15:36 | 23.93086 | -24.99913 | 34043 ft | 417 kts | 352° |
| 2026-04-26 15:36 | 23.98893 | -24.99996 | 34035 ft | 417 kts | 352° |
| 2026-04-26 15:37 | 24.04710 | -25.00026 | 34042 ft | 416 kts | 353° |
| 2026-04-26 15:37 | 24.10499 | -25.00017 | 34039 ft | 416 kts | 353° |
| 2026-04-26 15:38 | 24.16292 | -25.00017 | 34047 ft | 416 kts | 353° |
| 2026-04-26 15:38 | 24.22085 | -25.00018 | 34050 ft | 416 kts | 353° |
| 2026-04-26 15:39 | 24.27838 | -25.00020 | 34050 ft | 416 kts | 353° |
| 2026-04-26 15:39 | 24.32680 | -25.00017 | 34050 ft | 415 kts | 353° |
| 2026-04-26 15:40 | 24.39391 | -25.00013 | 34050 ft | 415 kts | 353° |
| 2026-04-26 15:40 | 24.45164 | -25.00009 | 34050 ft | 415 kts | 353° |
| 2026-04-26 15:41 | 24.50939 | -25.00006 | 34050 ft | 415 kts | 353° |
| 2026-04-26 15:41 | 24.56708 | -25.00007 | 34050 ft | 414 kts | 353° |
| 2026-04-26 15:42 | 24.62468 | -25.00010 | 34050 ft | 414 kts | 353° |
| 2026-04-26 15:42 | 24.68226 | -25.00006 | 34049 ft | 414 kts | 353° |
| 2026-04-26 15:43 | 24.73983 | -25.00006 | 34050 ft | 413 kts | 353° |
| 2026-04-26 15:44 | 24.82603 | -25.00008 | 34050 ft | 412 kts | 353° |
| 2026-04-26 15:44 | 24.91205 | -25.00010 | 34051 ft | 412 kts | 353° |
| 2026-04-26 15:45 | 24.99774 | -25.00008 | 34055 ft | 412 kts | 353° |
| 2026-04-26 15:46 | 25.08348 | -25.00010 | 34058 ft | 411 kts | 353° |
| 2026-04-26 15:46 | 25.13097 | -25.00007 | 34060 ft | 410 kts | 353° |
| 2026-04-26 15:47 | 25.22633 | -25.00007 | 34061 ft | 410 kts | 353° |
| 2026-04-26 15:48 | 25.28337 | -25.00010 | 34061 ft | 410 kts | 353° |
| 2026-04-26 15:48 | 25.34045 | -25.00008 | 34059 ft | 409 kts | 353° |
| 2026-04-26 15:49 | 25.39744 | -25.00011 | 34059 ft | 409 kts | 353° |
| 2026-04-26 15:49 | 25.45438 | -25.00012 | 34062 ft | 409 kts | 353° |
| 2026-04-26 15:50 | 25.51130 | -25.00012 | 34059 ft | 408 kts | 353° |
| 2026-04-26 15:50 | 25.56813 | -25.00013 | 34061 ft | 408 kts | 353° |
| 2026-04-26 15:51 | 25.62459 | -25.00015 | 34062 ft | 408 kts | 353° |
| 2026-04-26 15:51 | 25.68144 | -25.00020 | 34061 ft | 408 kts | 353° |
| 2026-04-26 15:52 | 25.73826 | -25.00021 | 34062 ft | 408 kts | 354° |
| 2026-04-26 15:52 | 25.79499 | -25.00022 | 34062 ft | 407 kts | 353° |
| 2026-04-26 15:53 | 25.85169 | -25.00019 | 34061 ft | 407 kts | 353° |
| 2026-04-26 15:53 | 25.90843 | -25.00020 | 34061 ft | 407 kts | 354° |
| 2026-04-26 15:54 | 25.96522 | -25.00022 | 34059 ft | 407 kts | 354° |
| 2026-04-26 15:54 | 26.02189 | -25.00020 | 34062 ft | 407 kts | 354° |
| 2026-04-26 15:55 | 26.07825 | -25.00020 | 34059 ft | 404 kts | 354° |
| 2026-04-26 15:55 | 26.13454 | -25.00021 | 34067 ft | 404 kts | 354° |
| 2026-04-26 15:56 | 26.19089 | -25.00019 | 34071 ft | 405 kts | 354° |
| 2026-04-26 15:56 | 26.24677 | -25.00021 | 34070 ft | 404 kts | 354° |
| 2026-04-26 15:57 | 26.30312 | -25.00023 | 34070 ft | 404 kts | 354° |
| 2026-04-26 15:57 | 26.35942 | -25.00022 | 34071 ft | 404 kts | 354° |
| 2026-04-26 15:58 | 26.41577 | -25.00020 | 34071 ft | 404 kts | 354° |
| 2026-04-26 15:58 | 26.47210 | -25.00024 | 34070 ft | 404 kts | 354° |
| 2026-04-26 15:59 | 26.52841 | -25.00021 | 34071 ft | 404 kts | 354° |
| 2026-04-26 15:59 | 26.58471 | -25.00023 | 34069 ft | 404 kts | 354° |
| 2026-04-26 16:00 | 26.63148 | -25.00024 | 34070 ft | 404 kts | 354° |
| 2026-04-26 16:00 | 26.69689 | -25.00025 | 34070 ft | 404 kts | 354° |
| 2026-04-26 16:01 | 26.75317 | -25.00020 | 34070 ft | 404 kts | 354° |
| 2026-04-26 16:01 | 26.79992 | -25.00022 | 34071 ft | 404 kts | 354° |
| 2026-04-26 16:02 | 26.85621 | -25.00019 | 34072 ft | 404 kts | 354° |
| 2026-04-26 16:02 | 26.91249 | -25.00022 | 34071 ft | 404 kts | 354° |
| 2026-04-26 16:03 | 26.96881 | -25.00020 | 34071 ft | 404 kts | 354° |
| 2026-04-26 16:03 | 27.02507 | -25.00024 | 34072 ft | 404 kts | 354° |
| 2026-04-26 16:04 | 27.08129 | -25.00023 | 34070 ft | 404 kts | 354° |
| 2026-04-26 16:04 | 27.13719 | -25.00022 | 34070 ft | 404 kts | 354° |
| 2026-04-26 16:05 | 27.19344 | -25.00022 | 34076 ft | 404 kts | 354° |
| 2026-04-26 16:05 | 27.24966 | -25.00022 | 34082 ft | 404 kts | 354° |
| 2026-04-26 16:06 | 27.30584 | -25.00022 | 34078 ft | 404 kts | 354° |
| 2026-04-26 16:06 | 27.36210 | -25.00020 | 34078 ft | 404 kts | 354° |
| 2026-04-26 16:07 | 27.41832 | -25.00021 | 34078 ft | 404 kts | 354° |
| 2026-04-26 16:07 | 27.47452 | -25.00023 | 34080 ft | 404 kts | 354° |
| 2026-04-26 16:08 | 27.53076 | -25.00024 | 34078 ft | 404 kts | 354° |
| 2026-04-26 16:08 | 27.58704 | -25.00024 | 34081 ft | 404 kts | 354° |
| 2026-04-26 16:09 | 27.64290 | -25.00022 | 34080 ft | 404 kts | 354° |
| 2026-04-26 16:09 | 27.69906 | -25.00021 | 34082 ft | 404 kts | 354° |
| 2026-04-26 16:10 | 27.75536 | -25.00021 | 34079 ft | 404 kts | 354° |
| 2026-04-26 16:10 | 27.81154 | -25.00025 | 34081 ft | 404 kts | 354° |
| 2026-04-26 16:11 | 27.86784 | -25.00019 | 34082 ft | 404 kts | 354° |
| 2026-04-26 16:11 | 27.92366 | -25.00024 | 34077 ft | 404 kts | 354° |
| 2026-04-26 16:12 | 27.98024 | -25.00025 | 34082 ft | 404 kts | 354° |
| 2026-04-26 16:12 | 28.06421 | -25.00020 | 34087 ft | 404 kts | 354° |
| 2026-04-26 16:13 | 28.12051 | -25.00023 | 34100 ft | 404 kts | 354° |
| 2026-04-26 16:13 | 28.17676 | -25.00025 | 34100 ft | 404 kts | 354° |
| 2026-04-26 16:14 | 28.23300 | -25.00019 | 34099 ft | 404 kts | 354° |
| 2026-04-26 16:15 | 28.31744 | -25.00020 | 34100 ft | 405 kts | 354° |
| 2026-04-26 16:15 | 28.37375 | -25.00023 | 34100 ft | 405 kts | 354° |
| 2026-04-26 16:16 | 28.45829 | -25.00025 | 34100 ft | 404 kts | 354° |
| 2026-04-26 16:16 | 28.51456 | -25.00021 | 34101 ft | 404 kts | 354° |
| 2026-04-26 16:17 | 28.57078 | -25.00022 | 34101 ft | 404 kts | 354° |
| 2026-04-26 16:17 | 28.62655 | -25.00023 | 34100 ft | 405 kts | 354° |
| 2026-04-26 16:18 | 28.71114 | -25.00021 | 34101 ft | 404 kts | 354° |
| 2026-04-26 16:19 | 28.79556 | -25.00021 | 34100 ft | 404 kts | 354° |
| 2026-04-26 16:20 | 28.88013 | -25.00020 | 34115 ft | 405 kts | 354° |
| 2026-04-26 16:20 | 28.96474 | -25.00024 | 34120 ft | 405 kts | 354° |
| 2026-04-26 16:21 | 29.02111 | -25.00024 | 34121 ft | 406 kts | 354° |
| 2026-04-26 16:21 | 29.07760 | -25.00023 | 34120 ft | 406 kts | 354° |
| 2026-04-26 16:22 | 29.13371 | -25.00024 | 34120 ft | 406 kts | 354° |
| 2026-04-26 16:22 | 29.19055 | -25.00025 | 34120 ft | 406 kts | 354° |
| 2026-04-26 16:23 | 29.24672 | -25.00023 | 34120 ft | 406 kts | 354° |
| 2026-04-26 16:23 | 29.30328 | -25.00025 | 34121 ft | 406 kts | 354° |
| 2026-04-26 16:24 | 29.35992 | -25.00022 | 34120 ft | 407 kts | 354° |
| 2026-04-26 16:24 | 29.41651 | -25.00021 | 34120 ft | 406 kts | 354° |
| 2026-04-26 16:25 | 29.47313 | -25.00023 | 34120 ft | 407 kts | 354° |
| 2026-04-26 16:25 | 29.52983 | -25.00022 | 34120 ft | 408 kts | 354° |
| 2026-04-26 16:26 | 29.57694 | -25.00021 | 34120 ft | 407 kts | 354° |
| 2026-04-26 16:26 | 29.64324 | -25.00020 | 34121 ft | 407 kts | 354° |
| 2026-04-26 16:27 | 29.69989 | -25.00022 | 34120 ft | 407 kts | 354° |
| 2026-04-26 16:27 | 29.75652 | -25.00022 | 34120 ft | 407 kts | 354° |
| 2026-04-26 16:28 | 29.81315 | -25.00024 | 34124 ft | 407 kts | 354° |
| 2026-04-26 16:28 | 29.86978 | -25.00023 | 34129 ft | 407 kts | 355° |
| 2026-04-26 16:29 | 29.92650 | -25.00025 | 34130 ft | 407 kts | 355° |
| 2026-04-26 16:29 | 29.98316 | -25.00023 | 34131 ft | 407 kts | 355° |
| 2026-04-26 16:30 | 30.03986 | -25.00024 | 34131 ft | 408 kts | 355° |
| 2026-04-26 16:30 | 30.09625 | -25.00024 | 34130 ft | 408 kts | 355° |
| 2026-04-26 16:31 | 30.15306 | -25.00026 | 34131 ft | 408 kts | 355° |
| 2026-04-26 16:31 | 30.20998 | -25.00019 | 34130 ft | 408 kts | 355° |
| 2026-04-26 16:32 | 30.25722 | -25.00024 | 34131 ft | 408 kts | 355° |
| 2026-04-26 16:32 | 30.32357 | -25.00023 | 34130 ft | 408 kts | 355° |
| 2026-04-26 16:33 | 30.38038 | -25.00023 | 34130 ft | 408 kts | 355° |
| 2026-04-26 16:33 | 30.43728 | -25.00023 | 34130 ft | 408 kts | 355° |
| 2026-04-26 16:34 | 30.49368 | -25.00023 | 34131 ft | 408 kts | 355° |
| 2026-04-26 16:34 | 30.55054 | -25.00024 | 34131 ft | 408 kts | 355° |
| 2026-04-26 16:35 | 30.60734 | -25.00022 | 34132 ft | 408 kts | 355° |
| 2026-04-26 16:35 | 30.66422 | -25.00020 | 34132 ft | 408 kts | 355° |
| 2026-04-26 16:36 | 30.72102 | -25.00025 | 34139 ft | 408 kts | 355° |
| 2026-04-26 16:36 | 30.77788 | -25.00025 | 34140 ft | 409 kts | 355° |
| 2026-04-26 16:37 | 30.83430 | -25.00021 | 34140 ft | 408 kts | 355° |
| 2026-04-26 16:37 | 30.88190 | -25.00023 | 34139 ft | 408 kts | 355° |
| 2026-04-26 16:38 | 30.94786 | -25.00023 | 34141 ft | 408 kts | 355° |
| 2026-04-26 16:38 | 31.00478 | -25.00024 | 34142 ft | 408 kts | 355° |
| 2026-04-26 16:39 | 31.06156 | -25.00024 | 34140 ft | 408 kts | 355° |
| 2026-04-26 16:39 | 31.11841 | -25.00021 | 34140 ft | 408 kts | 355° |
| 2026-04-26 16:40 | 31.17523 | -25.00021 | 34138 ft | 408 kts | 355° |
| 2026-04-26 16:40 | 31.23202 | -25.00024 | 34140 ft | 408 kts | 355° |
| 2026-04-26 16:41 | 31.28884 | -25.00023 | 34142 ft | 408 kts | 355° |
| 2026-04-26 16:41 | 31.34565 | -25.00023 | 34141 ft | 408 kts | 355° |
| 2026-04-26 16:42 | 31.40246 | -25.00025 | 34147 ft | 408 kts | 355° |
| 2026-04-26 16:42 | 31.45924 | -25.00022 | 34151 ft | 408 kts | 355° |
| 2026-04-26 16:43 | 31.51568 | -25.00020 | 34151 ft | 408 kts | 355° |
| 2026-04-26 16:43 | 31.57249 | -25.00023 | 34152 ft | 408 kts | 355° |
| 2026-04-26 16:44 | 31.62925 | -25.00025 | 34143 ft | 408 kts | 355° |
| 2026-04-26 16:44 | 31.68610 | -25.00019 | 34152 ft | 408 kts | 355° |
| 2026-04-26 16:45 | 31.74257 | -25.00022 | 34202 ft | 410 kts | 355° |
| 2026-04-26 16:45 | 31.77144 | -25.00020 | 34404 ft | 410 kts | 355° |
| 2026-04-26 16:45 | 31.79953 | -25.00021 | 34619 ft | 409 kts | 355° |
| 2026-04-26 16:46 | 31.82798 | -25.00022 | 34853 ft | 408 kts | 355° |
| 2026-04-26 16:46 | 31.85635 | -25.00022 | 35066 ft | 407 kts | 355° |
| 2026-04-26 16:46 | 31.88473 | -25.00022 | 35183 ft | 407 kts | 355° |
| 2026-04-26 16:46 | 31.91303 | -25.00022 | 35184 ft | 406 kts | 355° |
| 2026-04-26 16:47 | 31.95999 | -25.00023 | 35160 ft | 406 kts | 355° |
| 2026-04-26 16:47 | 32.01637 | -25.00025 | 35155 ft | 406 kts | 355° |
| 2026-04-26 16:48 | 32.08229 | -25.00151 | 35162 ft | 407 kts | 354° |
| 2026-04-26 16:48 | 32.12973 | -25.00321 | 35159 ft | 407 kts | 354° |
| 2026-04-26 16:49 | 32.18643 | -25.00514 | 35161 ft | 407 kts | 354° |
| 2026-04-26 16:49 | 32.24293 | -25.00692 | 35161 ft | 407 kts | 354° |
| 2026-04-26 16:50 | 32.29950 | -25.00877 | 35159 ft | 407 kts | 354° |
| 2026-04-26 16:50 | 32.35630 | -25.01063 | 35160 ft | 408 kts | 354° |
| 2026-04-26 16:51 | 32.41330 | -25.01238 | 35161 ft | 408 kts | 354° |
| 2026-04-26 16:51 | 32.46970 | -25.01418 | 35160 ft | 408 kts | 354° |
| 2026-04-26 16:52 | 32.51726 | -25.01572 | 35160 ft | 408 kts | 354° |
| 2026-04-26 16:52 | 32.58327 | -25.01782 | 35167 ft | 409 kts | 354° |
| 2026-04-26 16:53 | 32.64009 | -25.01967 | 35169 ft | 408 kts | 354° |
| 2026-04-26 16:53 | 32.69686 | -25.02153 | 35170 ft | 408 kts | 354° |
| 2026-04-26 16:54 | 32.75371 | -25.02337 | 35171 ft | 409 kts | 355° |
| 2026-04-26 16:54 | 32.81061 | -25.02517 | 35171 ft | 409 kts | 355° |
| 2026-04-26 16:55 | 32.86710 | -25.02701 | 35170 ft | 409 kts | 355° |
| 2026-04-26 16:55 | 32.92407 | -25.02884 | 35171 ft | 409 kts | 355° |
| 2026-04-26 16:56 | 33.00959 | -25.03163 | 35180 ft | 410 kts | 355° |
| 2026-04-26 16:57 | 33.06661 | -25.03350 | 35181 ft | 410 kts | 355° |
| 2026-04-26 16:57 | 33.15236 | -25.03630 | 35185 ft | 410 kts | 355° |
| 2026-04-26 16:58 | 33.19976 | -25.03782 | 35190 ft | 411 kts | 355° |
| 2026-04-26 16:59 | 33.29480 | -25.04094 | 35189 ft | 410 kts | 355° |
| 2026-04-26 17:00 | 33.40911 | -25.04471 | 35190 ft | 411 kts | 355° |
| 2026-04-26 17:00 | 33.49488 | -25.04750 | 35188 ft | 411 kts | 355° |
| 2026-04-26 17:01 | 33.55208 | -25.04940 | 35189 ft | 411 kts | 355° |
| 2026-04-26 17:01 | 33.60926 | -25.05127 | 35189 ft | 410 kts | 355° |
| 2026-04-26 17:02 | 33.66613 | -25.05313 | 35190 ft | 411 kts | 355° |
| 2026-04-26 17:02 | 33.72334 | -25.05502 | 35190 ft | 411 kts | 355° |
| 2026-04-26 17:03 | 33.78071 | -25.05693 | 35194 ft | 411 kts | 355° |
| 2026-04-26 17:03 | 33.83796 | -25.05885 | 35201 ft | 411 kts | 355° |
| 2026-04-26 17:04 | 33.89479 | -25.06072 | 35201 ft | 412 kts | 355° |
| 2026-04-26 17:04 | 33.95204 | -25.06265 | 35201 ft | 411 kts | 355° |
| 2026-04-26 17:05 | 34.00923 | -25.06455 | 35202 ft | 411 kts | 355° |
| 2026-04-26 17:05 | 34.06633 | -25.06643 | 35202 ft | 413 kts | 356° |
| 2026-04-26 17:06 | 34.12433 | -25.06839 | 35202 ft | 415 kts | 356° |
| 2026-04-26 17:06 | 34.18173 | -25.07031 | 35197 ft | 415 kts | 356° |
| 2026-04-26 17:07 | 34.23947 | -25.07229 | 35202 ft | 415 kts | 356° |
| 2026-04-26 17:07 | 34.29716 | -25.07419 | 35199 ft | 414 kts | 356° |
| 2026-04-26 17:08 | 34.35484 | -25.07610 | 35207 ft | 415 kts | 356° |
| 2026-04-26 17:08 | 34.41251 | -25.07806 | 35208 ft | 415 kts | 356° |
| 2026-04-26 17:09 | 34.46068 | -25.07965 | 35211 ft | 415 kts | 356° |
| 2026-04-26 17:09 | 34.52762 | -25.08194 | 35209 ft | 415 kts | 356° |
| 2026-04-26 17:10 | 34.58567 | -25.08391 | 35210 ft | 416 kts | 356° |
| 2026-04-26 17:10 | 34.64375 | -25.08586 | 35213 ft | 421 kts | 356° |
| 2026-04-26 17:11 | 34.70294 | -25.08786 | 35214 ft | 427 kts | 356° |
| 2026-04-26 17:11 | 34.76232 | -25.08990 | 35211 ft | 428 kts | 356° |
| 2026-04-26 17:12 | 34.85146 | -25.09287 | 35209 ft | 428 kts | 356° |
| 2026-04-26 17:13 | 34.94094 | -25.09593 | 35211 ft | 429 kts | 356° |
| 2026-04-26 17:14 | 35.03020 | -25.09900 | 35218 ft | 429 kts | 356° |
| 2026-04-26 17:14 | 35.11987 | -25.10208 | 35220 ft | 430 kts | 356° |
| 2026-04-26 17:15 | 35.20964 | -25.10518 | 35220 ft | 430 kts | 356° |
| 2026-04-26 17:16 | 35.26965 | -25.10729 | 35220 ft | 430 kts | 356° |
| 2026-04-26 17:16 | 35.32952 | -25.10920 | 35219 ft | 431 kts | 357° |
| 2026-04-26 17:17 | 35.38953 | -25.11117 | 35220 ft | 431 kts | 357° |
| 2026-04-26 17:17 | 35.44915 | -25.11323 | 35221 ft | 431 kts | 357° |
| 2026-04-26 17:18 | 35.50906 | -25.11530 | 35222 ft | 431 kts | 357° |
| 2026-04-26 17:18 | 35.56911 | -25.11741 | 35219 ft | 431 kts | 357° |
| 2026-04-26 17:19 | 35.65920 | -25.12043 | 35220 ft | 432 kts | 357° |
| 2026-04-26 17:19 | 35.71922 | -25.12258 | 35220 ft | 432 kts | 357° |
| 2026-04-26 17:20 | 35.75943 | -25.12403 | 35219 ft | 432 kts | 357° |
| 2026-04-26 17:20 | 35.83941 | -25.12683 | 35224 ft | 431 kts | 357° |
| 2026-04-26 17:21 | 35.89941 | -25.12889 | 35230 ft | 431 kts | 357° |
| 2026-04-26 17:21 | 35.95939 | -25.13109 | 35231 ft | 431 kts | 357° |
| 2026-04-26 17:22 | 36.01902 | -25.13319 | 35231 ft | 432 kts | 357° |
| 2026-04-26 17:22 | 36.07942 | -25.13527 | 35230 ft | 434 kts | 357° |
| 2026-04-26 17:23 | 36.13987 | -25.13742 | 35231 ft | 434 kts | 357° |
| 2026-04-26 17:23 | 36.20036 | -25.13950 | 35231 ft | 434 kts | 357° |
| 2026-04-26 17:24 | 36.26088 | -25.14168 | 35230 ft | 435 kts | 357° |
| 2026-04-26 17:24 | 36.32125 | -25.14369 | 35129 ft | 430 kts | 357° |
| 2026-04-26 17:25 | 36.35104 | -25.14469 | 34400 ft | 429 kts | 357° |
| 2026-04-26 17:25 | 36.38060 | -25.14572 | 33496 ft | 431 kts | 358° |
| 2026-04-26 17:25 | 36.41068 | -25.14681 | 32674 ft | 431 kts | 358° |
| 2026-04-26 17:25 | 36.44065 | -25.14788 | 31927 ft | 430 kts | 358° |
| 2026-04-26 17:26 | 36.47065 | -25.14892 | 31079 ft | 432 kts | 358° |
| 2026-04-26 17:26 | 36.50076 | -25.14995 | 30320 ft | 433 kts | 358° |
| 2026-04-26 17:26 | 36.53097 | -25.15101 | 29584 ft | 433 kts | 358° |
| 2026-04-26 17:26 | 36.56113 | -25.15204 | 28853 ft | 433 kts | 358° |
| 2026-04-26 17:27 | 36.59126 | -25.15308 | 28131 ft | 434 kts | 358° |
| 2026-04-26 17:27 | 36.62146 | -25.15415 | 27384 ft | 434 kts | 358° |
| 2026-04-26 17:27 | 36.65181 | -25.15520 | 26569 ft | 436 kts | 358° |
| 2026-04-26 17:27 | 36.68220 | -25.15625 | 25726 ft | 438 kts | 358° |
| 2026-04-26 17:28 | 36.71265 | -25.15732 | 24937 ft | 438 kts | 358° |
| 2026-04-26 17:28 | 36.74266 | -25.15842 | 24234 ft | 436 kts | 358° |
| 2026-04-26 17:28 | 36.77309 | -25.15952 | 23607 ft | 437 kts | 359° |
| 2026-04-26 17:28 | 36.80408 | -25.16063 | 23140 ft | 455 kts | 359° |
| 2026-04-26 17:29 | 36.83581 | -25.16174 | 22618 ft | 453 kts | 359° |
| 2026-04-26 17:29 | 36.84643 | -25.16211 | 22460 ft | 450 kts | 359° |
| 2026-04-26 17:29 | 36.89865 | -25.16399 | 21902 ft | 450 kts | 359° |
| 2026-04-26 17:29 | 36.92963 | -25.16512 | 21583 ft | 439 kts | 359° |
| 2026-04-26 17:30 | 36.95985 | -25.16627 | 21113 ft | 432 kts | 358° |
| 2026-04-26 17:30 | 36.98971 | -25.16843 | 20572 ft | 426 kts | 357° |
| 2026-04-26 17:30 | 37.01917 | -25.17077 | 20005 ft | 422 kts | 357° |
| 2026-04-26 17:30 | 37.04826 | -25.17310 | 19472 ft | 418 kts | 357° |
| 2026-04-26 17:31 | 37.07687 | -25.17541 | 18947 ft | 416 kts | 357° |
| 2026-04-26 17:31 | 37.10566 | -25.17805 | 18368 ft | 413 kts | 357° |
| 2026-04-26 17:31 | 37.13431 | -25.18030 | 17725 ft | 411 kts | 358° |
| 2026-04-26 17:31 | 37.16281 | -25.18244 | 17205 ft | 408 kts | 358° |
| 2026-04-26 17:32 | 37.19114 | -25.18465 | 16740 ft | 406 kts | 358° |
| 2026-04-26 17:32 | 37.21931 | -25.18689 | 16276 ft | 404 kts | 358° |
| 2026-04-26 17:32 | 37.24731 | -25.18916 | 15809 ft | 403 kts | 358° |
| 2026-04-26 17:32 | 37.27522 | -25.19142 | 15340 ft | 399 kts | 358° |
| 2026-04-26 17:33 | 37.30279 | -25.19368 | 14856 ft | 398 kts | 358° |
| 2026-04-26 17:33 | 37.33058 | -25.19591 | 14489 ft | 410 kts | 358° |
| 2026-04-26 17:33 | 37.35914 | -25.19819 | 14129 ft | 408 kts | 358° |
| 2026-04-26 17:34 | 37.41450 | -25.20267 | 13332 ft | 397 kts | 358° |
| 2026-04-26 17:34 | 37.44204 | -25.20496 | 12819 ft | 395 kts | 358° |
| 2026-04-26 17:34 | 37.46932 | -25.20721 | 12352 ft | 391 kts | 358° |
| 2026-04-26 17:34 | 37.49611 | -25.20942 | 11972 ft | 379 kts | 358° |
| 2026-04-26 17:35 | 37.52186 | -25.21152 | 11691 ft | 362 kts | 358° |
| 2026-04-26 17:35 | 37.54644 | -25.21351 | 11431 ft | 346 kts | 358° |
| 2026-04-26 17:35 | 37.57002 | -25.21582 | 11144 ft | 333 kts | 353° |
| 2026-04-26 17:35 | 37.59148 | -25.22524 | 10855 ft | 323 kts | 328° |
| 2026-04-26 17:36 | 37.60718 | -25.24454 | 10581 ft | 311 kts | 302° |
| 2026-04-26 17:36 | 37.61682 | -25.26826 | 10359 ft | 298 kts | 289° |
| 2026-04-26 17:36 | 37.62085 | -25.28460 | 10176 ft | 291 kts | 283° |
| 2026-04-26 17:36 | 37.62527 | -25.31752 | 9849 ft | 285 kts | 275° |
| 2026-04-26 17:37 | 37.62666 | -25.33438 | 9659 ft | 284 kts | 274° |
| 2026-04-26 17:37 | 37.62954 | -25.36718 | 9254 ft | 283 kts | 275° |
| 2026-04-26 17:37 | 37.63110 | -25.38355 | 9066 ft | 283 kts | 275° |
| 2026-04-26 17:38 | 37.63608 | -25.43272 | 8455 ft | 282 kts | 275° |
| 2026-04-26 17:38 | 37.63868 | -25.45728 | 8161 ft | 281 kts | 276° |
| 2026-04-26 17:38 | 37.64130 | -25.48166 | 7869 ft | 278 kts | 276° |
| 2026-04-26 17:38 | 37.64383 | -25.50563 | 7560 ft | 274 kts | 275° |
| 2026-04-26 17:39 | 37.64637 | -25.52947 | 7245 ft | 274 kts | 275° |
| 2026-04-26 17:39 | 37.64891 | -25.55334 | 6939 ft | 275 kts | 275° |
| 2026-04-26 17:39 | 37.65148 | -25.57723 | 6614 ft | 274 kts | 276° |
| 2026-04-26 17:39 | 37.65401 | -25.60076 | 6302 ft | 271 kts | 276° |
| 2026-04-26 17:40 | 37.65653 | -25.62441 | 5930 ft | 270 kts | 276° |
| 2026-04-26 17:40 | 37.65815 | -25.63982 | 5809 ft | 265 kts | 275° |
| 2026-04-26 17:40 | 37.66135 | -25.66983 | 5595 ft | 252 kts | 276° |
| 2026-04-26 17:40 | 37.66365 | -25.69131 | 5313 ft | 248 kts | 275° |
| 2026-04-26 17:41 | 37.66591 | -25.71313 | 4988 ft | 247 kts | 275° |
| 2026-04-26 17:41 | 37.66802 | -25.73406 | 4854 ft | 236 kts | 275° |
| 2026-04-26 17:41 | 37.67014 | -25.75370 | 4841 ft | 215 kts | 275° |
| 2026-04-26 17:41 | 37.67208 | -25.77150 | 4848 ft | 193 kts | 275° |
| 2026-04-26 17:42 | 37.67378 | -25.78744 | 4836 ft | 176 kts | 274° |
| 2026-04-26 17:42 | 37.67508 | -25.80274 | 4738 ft | 174 kts | 273° |
| 2026-04-26 17:42 | 37.67669 | -25.81785 | 4493 ft | 174 kts | 278° |
| 2026-04-26 17:42 | 37.68078 | -25.83193 | 4229 ft | 163 kts | 295° |
| 2026-04-26 17:43 | 37.68679 | -25.84356 | 3957 ft | 157 kts | 307° |
| 2026-04-26 17:43 | 37.69452 | -25.85329 | 3726 ft | 157 kts | 320° |
| 2026-04-26 17:43 | 37.70381 | -25.86047 | 3480 ft | 157 kts | 335° |
| 2026-04-26 17:43 | 37.71406 | -25.86526 | 3274 ft | 157 kts | 346° |
| 2026-04-26 17:44 | 37.72480 | -25.86671 | 3053 ft | 155 kts | 1° |
| 2026-04-26 17:44 | 37.73546 | -25.86556 | 2834 ft | 153 kts | 13° |
| 2026-04-26 17:44 | 37.74553 | -25.86173 | 2628 ft | 150 kts | 25° |
| 2026-04-26 17:44 | 37.75465 | -25.85548 | 2620 ft | 148 kts | 38° |
| 2026-04-26 17:45 | 37.76242 | -25.84706 | 2563 ft | 146 kts | 50° |
| 2026-04-26 17:45 | 37.76854 | -25.83698 | 2464 ft | 144 kts | 61° |
| 2026-04-26 17:45 | 37.77289 | -25.82584 | 2224 ft | 140 kts | 73° |
| 2026-04-26 17:45 | 37.77490 | -25.81415 | 2100 ft | 138 kts | 89° |
| 2026-04-26 17:46 | 37.77424 | -25.80223 | 1895 ft | 135 kts | 102° |
| 2026-04-26 17:46 | 37.77169 | -25.79090 | 1648 ft | 133 kts | 112° |
| 2026-04-26 17:46 | 37.76800 | -25.78019 | 1511 ft | 133 kts | 114° |
| 2026-04-26 17:46 | 37.76449 | -25.76944 | 1301 ft | 132 kts | 112° |
| 2026-04-26 17:47 | 37.76132 | -25.75855 | 1117 ft | 132 kts | 111° |
| 2026-04-26 17:47 | 37.75907 | -25.75128 | 994 ft | 131 kts | 112° |
| 2026-04-26 17:47 | 37.75432 | -25.73722 | 764 ft | 131 kts | 114° |
| 2026-04-26 17:47 | 37.75091 | -25.72653 | 586 ft | 132 kts | 111° |
| 2026-04-26 17:48 | 37.74764 | -25.71573 | 409 ft | 132 kts | 112° |
| 2026-04-26 17:48 | 37.74431 | -25.70507 | 267 ft | 123 kts | 112° |
| 2026-04-26 17:48 | 37.74193 | -25.69749 | 237 ft | 52 kts | 111° |
| 2026-04-26 17:48 | 37.74123 | -25.69527 | 226 ft | 22 kts | 112° |